createdAt,value
2023-04-18T00:02:07.069Z,20.57
2023-04-18T00:04:36.311Z,19.23
2023-04-18T00:07:03.983Z,18.00
2023-04-18T00:09:31.619Z,21.97
2023-04-18T00:11:59.285Z,23.60
2023-04-18T00:14:28.920Z,21.17
2023-04-18T00:16:57.214Z,24.30
2023-04-18T00:19:24.879Z,22.40
2023-04-18T00:21:53.990Z,27.57
2023-04-18T00:24:22.080Z,24.37
2023-04-18T00:26:49.887Z,27.17
2023-04-18T00:29:17.543Z,25.73
2023-04-18T00:31:45.232Z,20.97
2023-04-18T00:34:13.116Z,26.47
2023-04-18T00:36:40.913Z,27.23
2023-04-18T00:39:09.876Z,27.70
2023-04-18T00:41:37.530Z,26.17
2023-04-18T00:44:05.339Z,29.13
2023-04-18T00:46:33.190Z,25.40
2023-04-18T00:49:01.031Z,22.57
2023-04-18T00:51:29.125Z,26.03
2023-04-18T00:53:56.976Z,29.03
2023-04-18T00:56:26.685Z,26.00
2023-04-18T00:58:54.636Z,23.17
2023-04-18T01:01:22.340Z,23.97
2023-04-18T01:03:50.133Z,25.93
2023-04-18T01:06:18.674Z,30.67
2023-04-18T01:08:46.637Z,28.33
2023-04-18T01:11:14.280Z,26.67
2023-04-18T01:13:43.293Z,28.20
2023-04-18T01:16:10.962Z,28.07
2023-04-18T01:18:40.189Z,30.43
2023-04-18T01:21:08.248Z,35.33
2023-04-18T01:23:36.533Z,32.40
2023-04-18T01:26:05.726Z,32.43
2023-04-18T01:28:37.913Z,29.30
2023-04-18T01:31:05.768Z,31.07
2023-04-18T01:33:33.443Z,30.57
2023-04-18T01:36:01.069Z,28.60
2023-04-18T01:38:28.746Z,33.43
2023-04-18T01:40:56.366Z,34.33
2023-04-18T01:43:25.359Z,30.17
2023-04-18T01:45:53.022Z,33.63
2023-04-18T01:48:20.694Z,29.93
2023-04-18T01:50:48.311Z,27.90
2023-04-18T01:53:17.557Z,32.30
2023-04-18T01:55:45.193Z,36.27
2023-04-18T01:58:12.782Z,38.47
2023-04-18T02:00:41.784Z,32.20
2023-04-18T02:03:09.561Z,33.57
2023-04-18T02:05:37.567Z,42.47
2023-04-18T02:08:05.743Z,31.50
2023-04-18T02:10:33.397Z,35.63
2023-04-18T02:13:01.034Z,34.73
2023-04-18T02:15:28.678Z,34.47
2023-04-18T02:18:00.198Z,28.50
2023-04-18T02:20:31.581Z,36.27
2023-04-18T02:22:59.303Z,33.47
2023-04-18T02:25:28.839Z,33.63
2023-04-18T02:27:58.030Z,31.77
2023-04-18T02:30:26.302Z,30.23
2023-04-18T02:32:54.723Z,28.80
2023-04-18T02:35:24.754Z,31.90
2023-04-18T02:37:52.859Z,32.23
2023-04-18T02:40:20.787Z,32.50
2023-04-18T02:42:48.466Z,30.80
2023-04-18T02:45:16.409Z,31.20
2023-04-18T02:47:54.434Z,35.87
2023-04-18T02:50:30.132Z,32.43
2023-04-18T02:52:57.932Z,34.57
2023-04-18T02:55:26.887Z,31.27
2023-04-18T02:57:54.609Z,33.73
2023-04-18T03:00:22.436Z,36.97
2023-04-18T03:02:50.526Z,32.13
2023-04-18T03:05:18.333Z,31.47
2023-04-18T03:07:47.305Z,38.47
2023-04-18T03:10:15.097Z,35.13
2023-04-18T03:12:42.895Z,36.47
2023-04-18T03:15:11.458Z,32.07
2023-04-18T03:17:39.159Z,38.57
2023-04-18T03:20:08.000Z,37.23
2023-04-18T03:22:35.653Z,35.87
2023-04-18T03:25:05.050Z,37.47
2023-04-18T03:27:32.661Z,37.70
2023-04-18T03:30:00.576Z,36.60
2023-04-18T03:32:28.364Z,42.87
2023-04-18T03:34:55.984Z,35.60
2023-04-18T03:37:23.613Z,37.93
2023-04-18T03:39:51.248Z,39.97
2023-04-18T03:42:20.219Z,37.87
2023-04-18T03:44:47.829Z,41.73
2023-04-18T03:47:16.785Z,39.80
2023-04-18T03:49:44.423Z,39.47
2023-04-18T03:52:12.114Z,38.87
2023-04-18T03:54:39.772Z,40.23
2023-04-18T03:57:07.401Z,40.97
2023-04-18T03:59:36.398Z,40.27
2023-04-18T04:02:04.238Z,39.13
2023-04-18T04:04:31.949Z,39.47
2023-04-18T04:06:59.947Z,39.90
2023-04-18T04:09:27.535Z,37.20
2023-04-18T04:11:55.215Z,42.20
2023-04-18T04:14:24.510Z,40.43
2023-04-18T04:16:53.573Z,35.80
2023-04-18T04:19:21.182Z,38.90
2023-04-18T04:21:48.813Z,38.53
2023-04-18T04:24:16.811Z,44.53
2023-04-18T04:26:44.621Z,36.90
2023-04-18T04:29:13.770Z,39.40
2023-04-18T04:31:41.535Z,36.10
2023-04-18T04:34:10.498Z,35.80
2023-04-18T04:36:38.164Z,35.93
2023-04-18T04:39:05.795Z,38.70
2023-04-18T04:41:33.545Z,35.80
2023-04-18T04:44:01.810Z,32.57
2023-04-18T04:46:30.354Z,35.27
2023-04-18T04:48:58.157Z,34.53
2023-04-18T04:51:27.992Z,33.63
2023-04-18T04:53:55.682Z,34.67
2023-04-18T04:56:23.639Z,34.40
2023-04-18T04:58:51.312Z,35.13
2023-04-18T05:01:19.094Z,33.93
2023-04-18T05:03:46.920Z,31.33
2023-04-18T05:06:20.484Z,38.17
2023-04-18T05:08:49.900Z,30.20
2023-04-18T05:11:17.931Z,31.97
2023-04-18T05:13:45.556Z,27.00
2023-04-18T05:16:13.255Z,31.93
2023-04-18T05:18:41.479Z,23.93
2023-04-18T05:21:09.357Z,25.70
2023-04-18T05:24:01.274Z,21.23
2023-04-18T05:26:30.365Z,25.00
2023-04-18T05:28:57.955Z,25.00
2023-04-18T05:31:26.785Z,24.17
2023-04-18T05:33:54.467Z,24.33
2023-04-18T05:36:22.817Z,18.17
2023-04-18T05:38:50.684Z,20.57
2023-04-18T05:41:18.328Z,18.87
2023-04-18T05:44:01.850Z,19.63
2023-04-18T05:46:33.114Z,21.60
2023-04-18T05:49:01.133Z,19.60
2023-04-18T05:51:29.228Z,18.87
2023-04-18T05:53:56.877Z,18.17
2023-04-18T05:56:24.483Z,18.20
2023-04-18T05:58:53.454Z,19.90
2023-04-18T06:01:21.339Z,19.13
2023-04-18T06:03:49.144Z,21.93
2023-04-18T06:06:17.057Z,19.40
2023-04-18T06:08:44.661Z,17.53
2023-04-18T06:11:12.622Z,18.80
2023-04-18T06:13:40.519Z,15.50
2023-04-18T06:16:09.740Z,15.70
2023-04-18T06:18:37.436Z,16.30
2023-04-18T06:21:05.358Z,17.30
2023-04-18T06:23:32.988Z,15.03
2023-04-18T06:26:00.763Z,17.00
2023-04-18T06:28:28.434Z,20.20
2023-04-18T06:30:56.099Z,15.13
2023-04-18T06:33:25.116Z,16.50
2023-04-18T06:35:53.287Z,18.10
2023-04-18T06:38:21.397Z,14.27
2023-04-18T06:40:49.015Z,14.77
2023-04-18T06:43:16.664Z,15.00
2023-04-18T06:45:44.494Z,12.07
2023-04-18T06:48:12.195Z,13.30
2023-04-18T06:50:41.334Z,14.20
2023-04-18T06:53:08.960Z,16.10
2023-04-18T06:55:37.064Z,16.87
2023-04-18T06:58:05.694Z,11.57
2023-04-18T07:00:33.422Z,12.20
2023-04-18T07:03:02.118Z,13.73
2023-04-18T07:05:29.838Z,10.63
2023-04-18T07:07:58.840Z,10.57
2023-04-18T07:10:26.452Z,14.57
2023-04-18T07:12:54.076Z,14.10
2023-04-18T07:15:21.701Z,14.93
2023-04-18T07:17:49.588Z,12.50
2023-04-18T07:20:17.368Z,11.00
2023-04-18T07:22:45.856Z,12.47
2023-04-18T07:25:14.814Z,13.30
2023-04-18T07:27:42.532Z,12.93
2023-04-18T07:30:11.106Z,11.10
2023-04-18T07:32:38.892Z,15.83
2023-04-18T07:35:07.773Z,15.77
2023-04-18T07:37:35.942Z,10.30
2023-04-18T07:40:04.128Z,9.50
2023-04-18T07:42:33.216Z,11.30
2023-04-18T07:45:00.827Z,12.17
2023-04-18T07:47:30.762Z,9.17
2023-04-18T07:49:59.220Z,11.27
2023-04-18T07:52:27.207Z,9.10
2023-04-18T07:54:54.857Z,11.13
2023-04-18T07:57:22.496Z,10.53
2023-04-18T07:59:53.737Z,11.10
2023-04-18T08:02:21.711Z,11.33
2023-04-18T08:04:50.039Z,10.20
2023-04-18T08:07:17.956Z,11.30
2023-04-18T08:09:45.892Z,11.23
2023-04-18T08:12:13.503Z,12.00
2023-04-18T08:14:41.272Z,13.00
2023-04-18T08:17:10.280Z,9.83
2023-04-18T08:19:38.014Z,11.73
2023-04-18T08:22:10.636Z,10.03
2023-04-18T08:24:39.295Z,12.77
2023-04-18T08:27:07.350Z,13.60
2023-04-18T08:29:35.024Z,9.60
2023-04-18T08:32:02.818Z,12.83
2023-04-18T08:34:34.031Z,11.63
2023-04-18T08:37:01.765Z,11.33
2023-04-18T08:39:29.610Z,9.52
2023-04-18T08:42:00.446Z,11.35
2023-04-18T08:44:29.241Z,11.57
2023-04-18T08:46:57.550Z,10.93
2023-04-18T08:49:26.213Z,9.93
2023-04-18T08:51:57.507Z,12.70
2023-04-18T08:54:27.148Z,8.90
2023-04-18T08:57:08.768Z,12.27
2023-04-18T08:59:37.043Z,9.67
2023-04-18T09:02:08.734Z,10.13
2023-04-18T09:04:37.890Z,9.17
2023-04-18T09:07:08.751Z,10.10
2023-04-18T09:09:47.050Z,12.73
2023-04-18T09:12:18.142Z,7.53
2023-04-18T09:14:47.902Z,10.57
2023-04-18T09:17:18.206Z,9.17
2023-04-18T09:19:50.299Z,12.63
2023-04-18T09:22:19.312Z,11.17
2023-04-18T09:24:53.170Z,8.60
2023-04-18T09:27:22.928Z,10.67
2023-04-18T09:29:52.306Z,10.27
2023-04-18T09:32:26.799Z,8.23
2023-04-18T09:34:57.861Z,9.97
2023-04-18T09:37:27.346Z,7.80
2023-04-18T09:39:56.685Z,10.43
2023-04-18T09:42:26.159Z,9.63
2023-04-18T09:45:06.613Z,7.83
2023-04-18T09:47:36.344Z,11.63
2023-04-18T09:50:04.837Z,10.70
2023-04-18T09:52:36.574Z,10.40
2023-04-18T09:55:05.824Z,11.23
2023-04-18T09:57:34.752Z,9.50
2023-04-18T10:00:13.883Z,8.80
2023-04-18T10:02:49.867Z,8.27
2023-04-18T10:05:20.971Z,8.37
2023-04-18T10:07:51.591Z,7.27
2023-04-18T10:10:19.658Z,7.63
2023-04-18T10:12:50.503Z,6.97
2023-04-18T10:15:19.217Z,4.57
2023-04-18T10:18:03.594Z,5.87
2023-04-18T10:20:34.653Z,5.53
2023-04-18T10:23:38.326Z,6.60
2023-04-18T10:26:06.825Z,5.50
2023-04-18T10:28:54.757Z,4.93
2023-04-18T10:31:24.036Z,4.97
2023-04-18T10:34:03.767Z,5.43
2023-04-18T10:36:32.405Z,7.93
2023-04-18T10:39:04.581Z,4.97
2023-04-18T10:41:33.097Z,4.07
2023-04-18T10:44:27.046Z,5.33
2023-04-18T10:47:21.741Z,4.47
2023-04-18T10:50:01.106Z,6.30
2023-04-18T10:52:29.798Z,5.50
2023-04-18T10:55:09.660Z,4.67
2023-04-18T10:57:41.519Z,5.50
2023-04-18T11:00:12.481Z,4.93
2023-04-18T11:02:40.549Z,4.80
2023-04-18T11:05:09.753Z,4.83
2023-04-18T11:07:38.928Z,5.87
2023-04-18T11:10:10.324Z,6.23
2023-04-18T11:12:39.439Z,6.90
2023-04-18T11:15:11.878Z,5.00
2023-04-18T11:17:40.764Z,5.87
2023-04-18T11:20:11.245Z,5.37
2023-04-18T11:22:47.978Z,6.40
2023-04-18T11:25:17.401Z,7.03
2023-04-18T11:27:45.737Z,5.80
2023-04-18T11:30:15.012Z,4.40
2023-04-18T11:32:42.792Z,6.83
2023-04-18T11:35:11.994Z,6.13
2023-04-18T11:37:40.658Z,4.80
2023-04-18T11:40:10.774Z,5.23
2023-04-18T11:42:41.409Z,5.73
2023-04-18T11:45:12.853Z,5.20
2023-04-18T11:47:42.362Z,4.57
2023-04-18T11:50:11.545Z,4.83
2023-04-18T11:52:41.128Z,6.47
2023-04-18T11:55:14.669Z,6.80
2023-04-18T11:57:44.157Z,7.80
2023-04-18T12:00:13.479Z,9.80
2023-04-18T12:02:43.132Z,7.53
2023-04-18T12:05:11.754Z,7.57
2023-04-18T12:07:41.571Z,8.13
2023-04-18T12:10:23.628Z,7.13
2023-04-18T12:12:54.387Z,9.33
2023-04-18T12:15:24.037Z,11.50
2023-04-18T12:17:52.392Z,13.53
2023-04-18T12:20:20.291Z,8.30
2023-04-18T12:22:49.556Z,12.93
2023-04-18T12:25:27.756Z,8.90
2023-04-18T12:27:59.110Z,9.27
2023-04-18T12:30:28.806Z,8.73
2023-04-18T12:32:58.248Z,7.70
2023-04-18T12:35:26.660Z,8.77
2023-04-18T12:37:56.112Z,6.97
2023-04-18T12:40:26.156Z,8.60
2023-04-18T12:42:55.347Z,9.50
2023-04-18T12:45:24.791Z,10.50
2023-04-18T12:47:53.572Z,8.87
2023-04-18T12:50:22.759Z,7.27
2023-04-18T12:52:52.126Z,7.40
2023-04-18T12:55:20.091Z,11.17
2023-04-18T12:57:47.762Z,9.17
2023-04-18T13:00:15.540Z,11.83
2023-04-18T13:02:46.224Z,9.80
2023-04-18T13:05:15.695Z,7.70
2023-04-18T13:07:44.157Z,13.03
2023-04-18T13:10:13.358Z,6.80
2023-04-18T13:12:41.908Z,8.67
2023-04-18T13:15:10.564Z,8.63
2023-04-18T13:17:39.186Z,12.50
2023-04-18T13:20:10.817Z,8.50
2023-04-18T13:22:38.714Z,10.77
2023-04-18T13:25:08.174Z,11.37
2023-04-18T13:27:35.843Z,7.50
2023-04-18T13:30:03.803Z,9.57
2023-04-18T13:32:31.572Z,9.97
2023-04-18T13:34:59.227Z,8.03
2023-04-18T13:37:28.244Z,7.90
2023-04-18T13:39:55.891Z,10.00
2023-04-18T13:42:23.546Z,10.70
2023-04-18T13:44:51.181Z,8.70
2023-04-18T13:47:19.552Z,11.13
2023-04-18T13:49:47.320Z,8.63
2023-04-18T13:52:14.982Z,8.77
2023-04-18T13:54:43.982Z,11.40
2023-04-18T13:57:12.368Z,7.67
2023-04-18T13:59:40.911Z,10.83
2023-04-18T14:02:09.517Z,9.77
2023-04-18T14:04:37.845Z,11.37
2023-04-18T14:07:07.974Z,9.10
2023-04-18T14:09:35.687Z,7.70
2023-04-18T14:12:05.122Z,8.63
2023-04-18T14:14:32.791Z,8.50
2023-04-18T14:17:00.492Z,9.87
2023-04-18T14:19:28.363Z,8.20
2023-04-18T14:21:56.009Z,10.10
2023-04-18T14:24:23.637Z,9.20
2023-04-18T14:26:51.349Z,8.40
2023-04-18T14:29:20.334Z,10.50
2023-04-18T14:31:48.027Z,8.97
2023-04-18T14:34:15.773Z,10.70
2023-04-18T14:36:43.452Z,14.47
2023-04-18T14:39:11.342Z,9.53
2023-04-18T14:41:39.145Z,15.50
2023-04-18T14:44:06.821Z,9.60
2023-04-18T14:46:35.817Z,9.73
2023-04-18T14:49:03.491Z,11.30
2023-04-18T14:51:31.189Z,8.97
2023-04-18T14:53:58.822Z,9.73
2023-04-18T14:56:26.527Z,10.43
2023-04-18T14:58:54.202Z,10.33
2023-04-18T15:01:22.006Z,9.03
2023-04-18T15:03:52.503Z,11.10
2023-04-18T15:06:20.258Z,13.47
2023-04-18T15:08:47.878Z,10.77
2023-04-18T15:11:15.518Z,12.87
2023-04-18T15:13:43.097Z,10.80
2023-04-18T15:16:10.825Z,10.27
2023-04-18T15:18:38.465Z,8.60
2023-04-18T15:21:07.508Z,9.83
2023-04-18T15:23:35.192Z,9.33
2023-04-18T15:26:02.922Z,9.57
2023-04-18T15:28:30.613Z,11.00
2023-04-18T15:30:58.232Z,10.83
2023-04-18T15:33:26.009Z,10.40
2023-04-18T15:35:53.756Z,11.37
2023-04-18T15:38:22.748Z,11.70
2023-04-18T15:40:51.092Z,15.03
2023-04-18T15:43:18.947Z,11.73
2023-04-18T15:45:46.904Z,10.43
2023-04-18T15:48:14.667Z,10.60
2023-04-18T15:50:51.018Z,7.57
2023-04-18T15:53:18.781Z,9.97
2023-04-18T15:55:47.846Z,9.20
2023-04-18T15:58:15.496Z,11.10
2023-04-18T16:00:44.329Z,11.47
2023-04-18T16:03:12.232Z,10.27
2023-04-18T16:05:40.077Z,9.40
2023-04-18T16:08:08.876Z,10.33
2023-04-18T16:10:36.539Z,12.07
2023-04-18T16:13:06.649Z,8.30
2023-04-18T16:15:35.528Z,10.77
2023-04-18T16:18:03.229Z,9.77
2023-04-18T16:20:33.184Z,10.30
2023-04-18T16:23:00.841Z,8.67
2023-04-18T16:25:28.585Z,10.47
2023-04-18T16:27:56.237Z,6.90
2023-04-18T16:30:25.261Z,8.60
2023-04-18T16:32:54.238Z,8.37
2023-04-18T16:35:21.993Z,8.73
2023-04-18T16:37:49.707Z,9.73
2023-04-18T16:40:17.378Z,8.77
2023-04-18T16:42:45.039Z,9.27
2023-04-18T16:45:12.636Z,8.50
2023-04-18T16:47:41.694Z,9.43
2023-04-18T16:50:10.236Z,10.33
2023-04-18T16:52:37.983Z,11.13
2023-04-18T16:55:06.701Z,8.47
2023-04-18T16:57:34.519Z,11.20
2023-04-18T17:00:02.768Z,9.53
2023-04-18T17:02:30.669Z,8.33
2023-04-18T17:05:00.017Z,9.73
2023-04-18T17:07:27.757Z,7.23
2023-04-18T17:09:55.365Z,10.50
2023-04-18T17:12:22.984Z,8.70
2023-04-18T17:14:50.697Z,8.10
2023-04-18T17:17:18.320Z,9.63
2023-04-18T17:19:46.541Z,9.03
2023-04-18T17:22:15.501Z,9.03
2023-04-18T17:24:43.199Z,10.03
2023-04-18T17:27:10.893Z,9.20
2023-04-18T17:29:38.578Z,9.43
2023-04-18T17:32:06.833Z,8.63
2023-04-18T17:34:34.537Z,12.73
2023-04-18T17:37:03.045Z,9.23
2023-04-18T17:39:33.570Z,7.17
2023-04-18T17:42:02.056Z,9.40
2023-04-18T17:44:29.949Z,9.53
2023-04-18T17:46:57.644Z,7.33
2023-04-18T17:49:30.657Z,6.73
2023-04-18T17:51:58.281Z,8.70
2023-04-18T17:54:25.974Z,7.47
2023-04-18T17:56:55.004Z,10.03
2023-04-18T17:59:22.629Z,7.27
2023-04-18T18:01:50.772Z,7.17
2023-04-18T18:04:19.690Z,9.43
2023-04-18T18:06:54.771Z,8.87
2023-04-18T18:09:22.477Z,7.47
2023-04-18T18:11:50.104Z,10.60
2023-04-18T18:14:20.089Z,9.43
2023-04-18T18:16:47.974Z,7.50
2023-04-18T18:19:16.532Z,7.73
2023-04-18T18:21:44.376Z,6.87
2023-04-18T18:24:12.503Z,11.53
2023-04-18T18:26:40.371Z,9.23
2023-04-18T18:29:11.059Z,10.30
2023-04-18T18:31:40.386Z,8.63
2023-04-18T18:34:08.076Z,7.73
2023-04-18T18:36:35.712Z,9.00
2023-04-18T18:39:03.696Z,10.10
2023-04-18T18:41:31.357Z,9.90
2023-04-18T18:43:58.945Z,12.10
2023-04-18T18:46:27.258Z,11.50
2023-04-18T18:48:56.364Z,8.93
2023-04-18T18:51:24.077Z,11.17
2023-04-18T18:53:51.643Z,9.20
2023-04-18T18:56:19.247Z,9.23
2023-04-18T18:58:46.926Z,11.10
2023-04-18T19:01:14.612Z,12.47
2023-04-18T19:03:42.504Z,7.50
2023-04-18T19:06:11.608Z,9.50
2023-04-18T19:08:39.233Z,9.20
2023-04-18T19:11:07.033Z,11.33
2023-04-18T19:13:34.680Z,9.07
2023-04-18T19:16:02.391Z,10.43
2023-04-18T19:18:30.149Z,10.57
2023-04-18T19:20:57.822Z,8.07
2023-04-18T19:23:27.752Z,10.17
2023-04-18T19:25:55.408Z,9.33
2023-04-18T19:28:23.155Z,11.40
2023-04-18T19:30:51.133Z,12.67
2023-04-18T19:33:19.680Z,10.87
2023-04-18T19:35:47.341Z,8.17
2023-04-18T19:38:14.997Z,8.57
2023-04-18T19:40:44.065Z,11.53
2023-04-18T19:43:11.849Z,9.90
2023-04-18T19:45:39.641Z,11.43
2023-04-18T19:48:07.552Z,8.40
2023-04-18T19:50:35.282Z,8.37
2023-04-18T19:53:03.009Z,9.50
2023-04-18T19:55:31.041Z,8.37
2023-04-18T19:58:00.516Z,11.80
2023-04-18T20:00:29.320Z,11.97
2023-04-18T20:02:58.580Z,9.57
2023-04-18T20:05:26.460Z,10.00
2023-04-18T20:07:54.101Z,8.33
2023-04-18T20:10:22.330Z,9.63
2023-04-18T20:12:50.162Z,12.03
2023-04-18T20:15:19.491Z,11.60
2023-04-18T20:17:47.193Z,12.23
2023-04-18T20:20:15.082Z,10.83
2023-04-18T20:22:44.687Z,12.27
2023-04-18T20:25:12.333Z,15.93
2023-04-18T20:27:40.047Z,13.27
2023-04-18T20:30:08.602Z,10.47
2023-04-18T20:32:37.640Z,12.77
2023-04-18T20:35:05.899Z,11.70
2023-04-18T20:37:36.881Z,11.10
2023-04-18T20:40:07.933Z,12.23
2023-04-18T20:42:36.629Z,12.93
2023-04-18T20:45:04.414Z,12.70
2023-04-18T20:47:32.049Z,14.97
2023-04-18T20:50:01.160Z,15.53
2023-04-18T20:52:28.871Z,11.87
2023-04-18T20:54:56.483Z,16.57
2023-04-18T20:57:24.081Z,14.23
2023-04-18T20:59:51.733Z,10.90
2023-04-18T21:02:19.424Z,12.50
2023-04-18T21:04:47.660Z,13.93
2023-04-18T21:07:16.673Z,11.33
2023-04-18T21:09:44.304Z,14.77
2023-04-18T21:12:11.974Z,12.17
2023-04-18T21:14:39.947Z,13.93
2023-04-18T21:17:09.557Z,13.43
2023-04-18T21:19:37.651Z,11.90
2023-04-18T21:22:05.249Z,12.47
2023-04-18T21:24:34.300Z,11.70
2023-04-18T21:27:02.472Z,12.13
2023-04-18T21:29:30.123Z,13.10
2023-04-18T21:31:57.791Z,11.63
2023-04-18T21:34:25.480Z,15.57
2023-04-18T21:36:53.153Z,11.60
2023-04-18T21:39:20.774Z,12.10
2023-04-18T21:41:49.756Z,12.23
2023-04-18T21:44:18.687Z,12.80
2023-04-18T21:47:23.477Z,9.60
2023-04-18T21:49:51.150Z,12.20
2023-04-18T21:52:18.859Z,13.43
2023-04-18T21:54:46.497Z,13.47
2023-04-18T21:57:15.507Z,13.27
2023-04-18T21:59:43.154Z,15.03
2023-04-18T22:02:10.853Z,12.67
2023-04-18T22:04:42.500Z,13.27
2023-04-18T22:07:11.356Z,14.70
2023-04-18T22:09:39.743Z,14.17
2023-04-18T22:12:07.735Z,13.03
2023-04-18T22:14:36.743Z,11.70
2023-04-18T22:17:04.732Z,13.50
2023-04-18T22:19:32.445Z,14.23
2023-04-18T22:22:00.067Z,10.73
2023-04-18T22:24:27.736Z,14.73
2023-04-18T22:26:55.384Z,16.87
2023-04-18T22:29:22.994Z,11.17
2023-04-18T22:31:52.007Z,14.70
2023-04-18T22:34:19.634Z,14.10
2023-04-18T22:36:47.556Z,11.03
2023-04-18T22:39:15.341Z,14.10
2023-04-18T22:41:42.962Z,14.70
2023-04-18T22:44:10.638Z,16.37
2023-04-18T22:46:39.239Z,15.03
2023-04-18T22:49:08.260Z,17.23
2023-04-18T22:51:35.901Z,13.50
2023-04-18T22:54:03.536Z,14.10
2023-04-18T22:56:31.271Z,10.47
2023-04-18T22:58:58.908Z,13.30
2023-04-18T23:01:26.813Z,15.77
2023-04-18T23:03:54.725Z,14.37
2023-04-18T23:06:23.943Z,18.53
2023-04-18T23:08:51.614Z,13.40
2023-04-18T23:11:19.220Z,13.20
2023-04-18T23:13:46.818Z,12.53
2023-04-18T23:16:14.428Z,15.80
2023-04-18T23:18:42.163Z,20.07
2023-04-18T23:21:09.802Z,10.93
2023-04-18T23:23:38.843Z,8.20
2023-04-18T23:26:13.850Z,10.33
2023-04-18T23:28:42.172Z,11.40
2023-04-18T23:31:10.380Z,10.60
2023-04-18T23:33:38.066Z,15.00
2023-04-18T23:36:06.517Z,10.93
2023-04-18T23:38:37.108Z,8.00
2023-04-18T23:41:06.337Z,9.07
2023-04-18T23:43:34.338Z,10.30
2023-04-18T23:46:02.128Z,10.30
2023-04-18T23:48:29.770Z,14.90
2023-04-18T23:50:57.425Z,8.47
2023-04-18T23:53:25.260Z,8.77
2023-04-18T23:55:54.504Z,9.83
2023-04-18T23:58:23.492Z,11.43
